SAZR/RSA METAR and TAF weather

Enter ICAO airport designator
Station Type Date Time Source
SAZR METAR 2019/12/07 22:34 UTC NOAA

SAZR 072234Z 20015KT 1000 -RA BLDU FEW080CB BKN100 20/16 Q1011


Station Type Date Time Source
SAZR Decoded METAR 2019/12/07 22:34 UTC NOAA

Santa Rosa Aerodrome, Argentina (SAZR) 36-34S 064-16W 191M
Dec 07, 2019 - 05:34 PM EST / 2019.12.07 2234 UTC
Wind: from the SSW (200 degrees) at 17 MPH (15 KT):0
Visibility: less than 1 mile:0
Sky conditions: mostly cloudy
Weather: light rain; blowing widespread dust; Cumulonimbus clouds observed
Temperature: 68 F (20 C)
Dew Point: 60 F (16 C)
Relative Humidity: 77%
Pressure (altimeter): 29.85 in. Hg (1011 hPa)
ob: SAZR 072234Z 20015KT 1000 -RA BLDU FEW080CB BKN100 20/16 Q1011
cycle: 22

Station Type Date Time Source
SAZR TAF 2019/10/17 12:21 UTC NOAA

TAF SAZR 171100Z 1712/1812 20005KT 8000 OVC004 TX22/1718Z TN10/1809Z
BECMG 1713/1715 20010KT 7000 RADZ OVC010
BECMG 1716/1718 9999 NSW BKN030
BECMG 1722/1800 27005KT CAVOK
BECMG 1806/1808 5000 BR NSC

Example: see airport list